sensor_id;sensor_type;location;lat;lon;timestamp;pressure;altitude;pressure_sealevel;temperature;humidity
45285;BME280;31026;43.780;25.948;2024-02-23T00:02:15;100600.22;;;18.24;60.76
45285;BME280;31026;43.780;25.948;2024-02-23T00:04:43;100585.56;;;18.19;60.83
45285;BME280;31026;43.780;25.948;2024-02-23T00:07:12;100601.88;;;18.16;61.24
45285;BME280;31026;43.780;25.948;2024-02-23T00:09:40;100594.84;;;18.15;61.23
45285;BME280;31026;43.780;25.948;2024-02-23T00:12:08;100597.88;;;18.10;61.34
45285;BME280;31026;43.780;25.948;2024-02-23T00:14:41;100596.50;;;18.16;61.53
45285;BME280;31026;43.780;25.948;2024-02-23T00:17:10;100590.31;;;18.15;61.25
45285;BME280;31026;43.780;25.948;2024-02-23T00:19:38;100585.81;;;18.16;61.23
45285;BME280;31026;43.780;25.948;2024-02-23T00:22:06;100593.97;;;18.14;61.32
45285;BME280;31026;43.780;25.948;2024-02-23T00:24:35;100581.28;;;18.16;61.21
45285;BME280;31026;43.780;25.948;2024-02-23T00:27:06;100581.03;;;18.19;61.08
45285;BME280;31026;43.780;25.948;2024-02-23T00:29:34;100587.19;;;18.10;61.34
45285;BME280;31026;43.780;25.948;2024-02-23T00:32:05;100583.22;;;18.04;61.50
45285;BME280;31026;43.780;25.948;2024-02-23T00:34:34;100572.38;;;18.06;61.53
45285;BME280;31026;43.780;25.948;2024-02-23T00:37:02;100584.50;;;18.10;61.49
45285;BME280;31026;43.780;25.948;2024-02-23T00:39:31;100571.31;;;18.18;61.09
45285;BME280;31026;43.780;25.948;2024-02-23T00:41:59;100586.97;;;18.23;60.99
45285;BME280;31026;43.780;25.948;2024-02-23T00:44:27;100569.50;;;18.19;60.90
45285;BME280;31026;43.780;25.948;2024-02-23T00:46:56;100580.91;;;18.21;61.05
45285;BME280;31026;43.780;25.948;2024-02-23T00:49:29;100572.56;;;18.14;61.11
45285;BME280;31026;43.780;25.948;2024-02-23T00:51:57;100555.94;;;18.20;61.16
45285;BME280;31026;43.780;25.948;2024-02-23T00:54:25;100571.41;;;18.07;61.50
45285;BME280;31026;43.780;25.948;2024-02-23T00:56:54;100560.72;;;18.07;61.56
45285;BME280;31026;43.780;25.948;2024-02-23T00:59:22;100559.63;;;18.19;61.52
45285;BME280;31026;43.780;25.948;2024-02-23T01:01:50;100563.81;;;18.12;61.38
45285;BME280;31026;43.780;25.948;2024-02-23T01:04:19;100558.78;;;18.19;61.09
45285;BME280;31026;43.780;25.948;2024-02-23T01:06:50;100540.75;;;18.21;60.92
45285;BME280;31026;43.780;25.948;2024-02-23T01:09:18;100549.72;;;18.10;61.25
45285;BME280;31026;43.780;25.948;2024-02-23T01:11:47;100547.75;;;18.12;61.39
45285;BME280;31026;43.780;25.948;2024-02-23T01:14:16;100546.88;;;18.02;61.63
45285;BME280;31026;43.780;25.948;2024-02-23T01:16:44;100557.56;;;18.02;61.90
45285;BME280;31026;43.780;25.948;2024-02-23T01:19:13;100554.34;;;18.08;61.46
45285;BME280;31026;43.780;25.948;2024-02-23T01:21:41;100542.09;;;18.05;61.65
45285;BME280;31026;43.780;25.948;2024-02-23T01:24:12;100561.13;;;18.12;61.62
45285;BME280;31026;43.780;25.948;2024-02-23T01:26:40;100551.69;;;18.08;61.48
45285;BME280;31026;43.780;25.948;2024-02-23T01:29:09;100559.28;;;18.03;61.56
45285;BME280;31026;43.780;25.948;2024-02-23T01:31:37;100541.53;;;18.02;61.56
45285;BME280;31026;43.780;25.948;2024-02-23T01:34:05;100531.28;;;18.07;61.31
45285;BME280;31026;43.780;25.948;2024-02-23T01:36:34;100537.59;;;18.06;61.47
45285;BME280;31026;43.780;25.948;2024-02-23T01:39:04;100544.91;;;18.04;61.53
45285;BME280;31026;43.780;25.948;2024-02-23T01:41:35;100535.34;;;18.01;61.87
45285;BME280;31026;43.780;25.948;2024-02-23T01:44:03;100531.81;;;18.01;61.66
45285;BME280;31026;43.780;25.948;2024-02-23T01:46:31;100542.94;;;18.06;61.60
45285;BME280;31026;43.780;25.948;2024-02-23T01:49:00;100528.16;;;18.02;61.64
45285;BME280;31026;43.780;25.948;2024-02-23T01:51:29;100530.81;;;18.02;61.64
45285;BME280;31026;43.780;25.948;2024-02-23T01:53:57;100515.31;;;17.96;61.82
45285;BME280;31026;43.780;25.948;2024-02-23T01:56:26;100519.41;;;18.00;61.85
45285;BME280;31026;43.780;25.948;2024-02-23T01:58:57;100542.78;;;17.98;61.93
45285;BME280;31026;43.780;25.948;2024-02-23T02:01:28;100531.53;;;18.04;61.77
45285;BME280;31026;43.780;25.948;2024-02-23T02:03:56;100522.84;;;18.12;61.57
45285;BME280;31026;43.780;25.948;2024-02-23T02:06:25;100528.47;;;18.08;61.74
45285;BME280;31026;43.780;25.948;2024-02-23T02:08:53;100517.78;;;18.08;61.48
45285;BME280;31026;43.780;25.948;2024-02-23T02:11:22;100524.66;;;18.11;61.53
45285;BME280;31026;43.780;25.948;2024-02-23T02:13:50;100516.59;;;18.52;60.58
45285;BME280;31026;43.780;25.948;2024-02-23T02:16:21;100515.38;;;19.24;58.47
45285;BME280;31026;43.780;25.948;2024-02-23T02:18:49;100529.03;;;19.97;56.59
45285;BME280;31026;43.780;25.948;2024-02-23T02:21:17;100521.84;;;19.98;56.71
45285;BME280;31026;43.780;25.948;2024-02-23T02:23:48;100513.28;;;20.12;56.13
45285;BME280;31026;43.780;25.948;2024-02-23T02:26:17;100525.00;;;20.11;56.36
45285;BME280;31026;43.780;25.948;2024-02-23T02:28:45;100515.84;;;20.14;56.16
45285;BME280;31026;43.780;25.948;2024-02-23T02:31:14;100526.31;;;20.07;56.52
45285;BME280;31026;43.780;25.948;2024-02-23T02:33:44;100522.28;;;20.21;56.20
45285;BME280;31026;43.780;25.948;2024-02-23T02:36:13;100528.25;;;20.15;56.41
45285;BME280;31026;43.780;25.948;2024-02-23T02:38:41;100524.81;;;20.22;56.13
45285;BME280;31026;43.780;25.948;2024-02-23T02:41:09;100516.63;;;20.24;56.11
45285;BME280;31026;43.780;25.948;2024-02-23T02:43:38;100524.00;;;20.22;56.24
45285;BME280;31026;43.780;25.948;2024-02-23T02:46:06;100535.56;;;20.22;56.38
45285;BME280;31026;43.780;25.948;2024-02-23T02:48:34;100517.22;;;20.18;56.32
45285;BME280;31026;43.780;25.948;2024-02-23T02:51:06;100523.16;;;20.21;56.38
45285;BME280;31026;43.780;25.948;2024-02-23T02:53:34;100529.59;;;20.29;56.12
45285;BME280;31026;43.780;25.948;2024-02-23T02:56:05;100532.38;;;20.37;55.76
45285;BME280;31026;43.780;25.948;2024-02-23T02:58:33;100525.06;;;20.29;56.14
45285;BME280;31026;43.780;25.948;2024-02-23T03:01:02;100538.34;;;20.31;56.09
45285;BME280;31026;43.780;25.948;2024-02-23T03:03:31;100527.91;;;20.27;56.22
45285;BME280;31026;43.780;25.948;2024-02-23T03:05:59;100529.00;;;20.35;56.15
45285;BME280;31026;43.780;25.948;2024-02-23T03:08:30;100524.03;;;20.40;56.06
45285;BME280;31026;43.780;25.948;2024-02-23T03:10:58;100530.09;;;20.42;55.83
45285;BME280;31026;43.780;25.948;2024-02-23T03:13:27;100526.25;;;20.44;55.65
45285;BME280;31026;43.780;25.948;2024-02-23T03:15:56;100536.16;;;20.44;55.66
45285;BME280;31026;43.780;25.948;2024-02-23T03:18:25;100531.84;;;20.51;55.71
45285;BME280;31026;43.780;25.948;2024-02-23T03:20:54;100409.47;;;19.85;55.68
45285;BME280;31026;43.780;25.948;2024-02-23T03:23:23;100525.91;;;20.57;55.47
45285;BME280;31026;43.780;25.948;2024-02-23T03:25:54;100527.78;;;20.47;55.73
45285;BME280;31026;43.780;25.948;2024-02-23T03:28:22;100530.88;;;20.52;55.80
45285;BME280;31026;43.780;25.948;2024-02-23T03:30:50;100528.59;;;20.57;55.66
45285;BME280;31026;43.780;25.948;2024-02-23T03:33:19;100531.00;;;20.60;55.62
45285;BME280;31026;43.780;25.948;2024-02-23T03:35:47;100533.38;;;20.63;55.38
45285;BME280;31026;43.780;25.948;2024-02-23T03:38:15;100524.06;;;20.58;55.74
45285;BME280;31026;43.780;25.948;2024-02-23T03:40:44;100532.00;;;20.59;55.72
45285;BME280;31026;43.780;25.948;2024-02-23T03:43:15;100520.13;;;20.52;55.88
45285;BME280;31026;43.780;25.948;2024-02-23T03:45:43;100533.09;;;20.57;55.65
45285;BME280;31026;43.780;25.948;2024-02-23T03:48:11;100521.50;;;20.56;55.73
45285;BME280;31026;43.780;25.948;2024-02-23T03:50:40;100528.03;;;20.54;55.80
45285;BME280;31026;43.780;25.948;2024-02-23T03:53:08;100529.94;;;20.71;55.35
45285;BME280;31026;43.780;25.948;2024-02-23T03:55:36;100521.63;;;20.64;55.46
45285;BME280;31026;43.780;25.948;2024-02-23T03:58:05;100517.78;;;20.67;55.25
45285;BME280;31026;43.780;25.948;2024-02-23T04:00:36;100536.97;;;20.26;56.54
45285;BME280;31026;43.780;25.948;2024-02-23T04:03:04;100549.84;;;19.85;57.44
45285;BME280;31026;43.780;25.948;2024-02-23T04:05:34;100534.09;;;19.53;58.08
45285;BME280;31026;43.780;25.948;2024-02-23T04:08:02;100544.00;;;19.33;58.42
45285;BME280;31026;43.780;25.948;2024-02-23T04:10:31;100540.09;;;19.08;58.96
45285;BME280;31026;43.780;25.948;2024-02-23T04:13:00;100526.13;;;18.95;59.17
45285;BME280;31026;43.780;25.948;2024-02-23T04:15:28;100532.03;;;18.88;59.16
45285;BME280;31026;43.780;25.948;2024-02-23T04:17:59;100535.81;;;18.86;59.20
45285;BME280;31026;43.780;25.948;2024-02-23T04:20:28;100519.75;;;18.86;59.15
45285;BME280;31026;43.780;25.948;2024-02-23T04:22:57;100544.88;;;19.04;58.88
45285;BME280;31026;43.780;25.948;2024-02-23T04:25:25;100528.22;;;19.30;58.75
45285;BME280;31026;43.780;25.948;2024-02-23T04:27:54;100518.44;;;19.48;58.23
45285;BME280;31026;43.780;25.948;2024-02-23T04:30:22;100537.75;;;19.62;57.76
45285;BME280;31026;43.780;25.948;2024-02-23T04:32:50;100531.81;;;19.68;57.52
45285;BME280;31026;43.780;25.948;2024-02-23T04:35:21;100531.53;;;19.71;57.58
45285;BME280;31026;43.780;25.948;2024-02-23T04:37:49;100524.16;;;19.63;57.67
45285;BME280;31026;43.780;25.948;2024-02-23T04:40:18;100521.34;;;19.65;57.71
45285;BME280;31026;43.780;25.948;2024-02-23T04:42:46;100547.78;;;19.60;57.78
45285;BME280;31026;43.780;25.948;2024-02-23T04:45:15;100536.88;;;19.61;57.66
45285;BME280;31026;43.780;25.948;2024-02-23T04:47:43;100428.81;;;18.94;57.52
45285;BME280;31026;43.780;25.948;2024-02-23T04:50:13;100545.38;;;19.57;57.74
45285;BME280;31026;43.780;25.948;2024-02-23T04:52:44;100531.00;;;19.58;57.90
45285;BME280;31026;43.780;25.948;2024-02-23T04:55:12;100561.91;;;19.62;57.90
45285;BME280;31026;43.780;25.948;2024-02-23T04:57:41;100546.50;;;19.64;57.70
45285;BME280;31026;43.780;25.948;2024-02-23T05:00:10;100542.53;;;19.68;57.68
45285;BME280;31026;43.780;25.948;2024-02-23T05:02:38;100546.91;;;19.69;57.66
45285;BME280;31026;43.780;25.948;2024-02-23T05:05:07;100540.13;;;19.65;57.68
45285;BME280;31026;43.780;25.948;2024-02-23T05:07:35;100552.41;;;19.67;57.68
45285;BME280;31026;43.780;25.948;2024-02-23T05:10:06;100544.53;;;19.66;57.74
45285;BME280;31026;43.780;25.948;2024-02-23T05:12:35;100612.00;;;19.71;57.84
45285;BME280;31026;43.780;25.948;2024-02-23T05:15:04;100430.75;;;19.02;57.58
45285;BME280;31026;43.780;25.948;2024-02-23T05:17:32;100563.00;;;19.79;57.76
45285;BME280;31026;43.780;25.948;2024-02-23T05:20:01;100565.13;;;19.75;57.83
45285;BME280;31026;43.780;25.948;2024-02-23T05:22:33;100552.72;;;19.74;57.97
45285;BME280;31026;43.780;25.948;2024-02-23T05:25:01;100555.28;;;19.46;58.52
45285;BME280;31026;43.780;25.948;2024-02-23T05:27:32;100571.69;;;19.14;59.36
45285;BME280;31026;43.780;25.948;2024-02-23T05:30:01;100589.72;;;19.02;59.56
45285;BME280;31026;43.780;25.948;2024-02-23T05:32:29;100591.97;;;18.87;59.87
45285;BME280;31026;43.780;25.948;2024-02-23T05:34:57;100579.81;;;18.83;59.72
45285;BME280;31026;43.780;25.948;2024-02-23T05:37:26;100592.56;;;19.20;59.18
45285;BME280;31026;43.780;25.948;2024-02-23T05:39:55;100590.13;;;19.56;58.11
45285;BME280;31026;43.780;25.948;2024-02-23T05:42:25;100580.38;;;19.55;58.14
45285;BME280;31026;43.780;25.948;2024-02-23T05:44:55;100583.94;;;19.56;57.85
45285;BME280;31026;43.780;25.948;2024-02-23T05:47:24;100589.56;;;19.53;57.76
45285;BME280;31026;43.780;25.948;2024-02-23T05:49:52;100581.25;;;19.56;57.89
45285;BME280;31026;43.780;25.948;2024-02-23T05:52:21;100598.75;;;19.60;57.78
45285;BME280;31026;43.780;25.948;2024-02-23T05:54:49;100602.97;;;19.53;57.78
45285;BME280;31026;43.780;25.948;2024-02-23T05:57:21;100601.44;;;19.60;57.60
45285;BME280;31026;43.780;25.948;2024-02-23T05:59:49;100602.84;;;19.64;57.70
45285;BME280;31026;43.780;25.948;2024-02-23T06:02:20;100590.13;;;19.66;57.62
45285;BME280;31026;43.780;25.948;2024-02-23T06:04:48;100605.91;;;19.69;57.49
45285;BME280;31026;43.780;25.948;2024-02-23T06:07:17;100619.19;;;19.61;57.56
45285;BME280;31026;43.780;25.948;2024-02-23T06:09:47;100595.66;;;19.74;57.33
45285;BME280;31026;43.780;25.948;2024-02-23T06:12:15;100603.50;;;19.85;56.92
45285;BME280;31026;43.780;25.948;2024-02-23T06:14:43;100606.59;;;19.91;56.99
45285;BME280;31026;43.780;25.948;2024-02-23T06:17:12;100595.59;;;19.94;56.99
45285;BME280;31026;43.780;25.948;2024-02-23T06:19:40;100613.81;;;20.00;56.62
45285;BME280;31026;43.780;25.948;2024-02-23T06:22:08;100609.41;;;19.99;56.69
45285;BME280;31026;43.780;25.948;2024-02-23T06:24:38;100612.50;;;20.04;56.64
45285;BME280;31026;43.780;25.948;2024-02-23T06:27:07;100609.63;;;20.15;56.32
45285;BME280;31026;43.780;25.948;2024-02-23T06:29:35;100616.13;;;20.22;56.11
45285;BME280;31026;43.780;25.948;2024-02-23T06:32:04;100623.28;;;19.84;57.12
45285;BME280;31026;43.780;25.948;2024-02-23T06:34:33;100617.09;;;19.64;57.67
45285;BME280;31026;43.780;25.948;2024-02-23T06:37:04;100609.03;;;19.55;57.77
45285;BME280;31026;43.780;25.948;2024-02-23T06:39:32;100616.53;;;19.41;57.89
45285;BME280;31026;43.780;25.948;2024-02-23T06:42:00;100602.28;;;19.31;58.36
45285;BME280;31026;43.780;25.948;2024-02-23T06:44:29;100636.28;;;19.21;58.66
45285;BME280;31026;43.780;25.948;2024-02-23T06:46:58;100621.63;;;19.25;58.57
45285;BME280;31026;43.780;25.948;2024-02-23T06:49:26;100601.28;;;19.52;58.02
45285;BME280;31026;43.780;25.948;2024-02-23T06:51:54;100633.19;;;19.84;57.12
45285;BME280;31026;43.780;25.948;2024-02-23T06:54:25;100622.44;;;19.94;56.87
45285;BME280;31026;43.780;25.948;2024-02-23T06:56:54;100604.94;;;19.60;57.86
45285;BME280;31026;43.780;25.948;2024-02-23T06:59:23;100610.06;;;19.34;58.50
45285;BME280;31026;43.780;25.948;2024-02-23T07:01:52;100622.44;;;19.16;58.71
45285;BME280;31026;43.780;25.948;2024-02-23T07:04:20;100598.47;;;19.04;58.66
45285;BME280;31026;43.780;25.948;2024-02-23T07:06:49;100601.31;;;19.13;58.42
45285;BME280;31026;43.780;25.948;2024-02-23T07:09:17;100609.19;;;19.53;57.59
45285;BME280;31026;43.780;25.948;2024-02-23T07:11:48;100607.47;;;19.81;56.83
45285;BME280;31026;43.780;25.948;2024-02-23T07:14:16;100623.03;;;19.88;55.12
45285;BME280;31026;43.780;25.948;2024-02-23T07:16:47;100606.63;;;19.61;56.63
45285;BME280;31026;43.780;25.948;2024-02-23T07:19:16;100602.41;;;19.39;56.26
45285;BME280;31026;43.780;25.948;2024-02-23T07:21:45;100607.66;;;19.31;56.33
45285;BME280;31026;43.780;25.948;2024-02-23T07:24:13;100605.25;;;19.18;56.07
45285;BME280;31026;43.780;25.948;2024-02-23T07:26:42;100601.88;;;19.16;55.25
45285;BME280;31026;43.780;25.948;2024-02-23T07:29:13;100602.84;;;19.44;53.83
45285;BME280;31026;43.780;25.948;2024-02-23T07:31:42;100600.44;;;19.80;52.72
45285;BME280;31026;43.780;25.948;2024-02-23T07:34:10;100608.91;;;19.66;52.47
45285;BME280;31026;43.780;25.948;2024-02-23T07:36:38;100611.88;;;19.53;53.75
45285;BME280;31026;43.780;25.948;2024-02-23T07:39:07;100606.50;;;19.43;53.60
45285;BME280;31026;43.780;25.948;2024-02-23T07:41:36;100599.59;;;19.31;53.12
45285;BME280;31026;43.780;25.948;2024-02-23T07:44:05;100612.59;;;19.26;52.64
45285;BME280;31026;43.780;25.948;2024-02-23T07:46:36;100612.03;;;19.22;53.00
45285;BME280;31026;43.780;25.948;2024-02-23T07:49:05;100606.94;;;19.58;51.95
45285;BME280;31026;43.780;25.948;2024-02-23T07:51:33;100589.38;;;19.93;51.01
45285;BME280;31026;43.780;25.948;2024-02-23T07:54:02;100595.75;;;19.82;51.18
45285;BME280;31026;43.780;25.948;2024-02-23T07:56:30;100610.88;;;19.64;52.26
45285;BME280;31026;43.780;25.948;2024-02-23T07:58:58;100606.22;;;19.46;52.31
45285;BME280;31026;43.780;25.948;2024-02-23T08:01:28;100587.19;;;19.30;52.72
45285;BME280;31026;43.780;25.948;2024-02-23T08:03:59;100609.22;;;19.24;52.45
45285;BME280;31026;43.780;25.948;2024-02-23T08:06:28;100620.47;;;19.18;52.52
45285;BME280;31026;43.780;25.948;2024-02-23T08:08:56;100618.81;;;19.36;51.77
45285;BME280;31026;43.780;25.948;2024-02-23T08:11:25;100609.44;;;19.79;50.63
45285;BME280;31026;43.780;25.948;2024-02-23T08:13:53;100607.19;;;19.94;49.97
45285;BME280;31026;43.780;25.948;2024-02-23T08:16:21;100609.34;;;19.71;50.90
45285;BME280;31026;43.780;25.948;2024-02-23T08:18:50;100607.38;;;19.54;51.67
45285;BME280;31026;43.780;25.948;2024-02-23T08:21:20;100600.03;;;19.36;51.57
45285;BME280;31026;43.780;25.948;2024-02-23T08:23:49;100619.38;;;19.30;51.67
45285;BME280;31026;43.780;25.948;2024-02-23T08:26:17;100585.78;;;19.26;51.86
45285;BME280;31026;43.780;25.948;2024-02-23T08:28:45;100602.97;;;19.23;52.00
45285;BME280;31026;43.780;25.948;2024-02-23T08:31:14;100584.09;;;19.44;51.71
45285;BME280;31026;43.780;25.948;2024-02-23T08:33:42;100606.34;;;19.94;50.44
45285;BME280;31026;43.780;25.948;2024-02-23T08:36:11;100603.94;;;19.91;50.09
45285;BME280;31026;43.780;25.948;2024-02-23T08:38:45;100591.22;;;19.63;51.07
45285;BME280;31026;43.780;25.948;2024-02-23T08:41:13;100587.72;;;19.43;52.15
45285;BME280;31026;43.780;25.948;2024-02-23T08:43:42;100603.69;;;19.35;52.28
45285;BME280;31026;43.780;25.948;2024-02-23T08:46:10;100612.59;;;19.26;52.71
45285;BME280;31026;43.780;25.948;2024-02-23T08:48:39;100606.09;;;19.19;53.07
45285;BME280;31026;43.780;25.948;2024-02-23T08:51:07;100597.75;;;19.32;53.25
45285;BME280;31026;43.780;25.948;2024-02-23T08:53:35;100601.16;;;19.73;51.64
45285;BME280;31026;43.780;25.948;2024-02-23T08:56:06;100610.56;;;19.96;50.70
45285;BME280;31026;43.780;25.948;2024-02-23T08:58:35;100595.38;;;19.58;51.43
45285;BME280;31026;43.780;25.948;2024-02-23T09:01:03;100600.31;;;19.43;52.08
45285;BME280;31026;43.780;25.948;2024-02-23T09:03:32;100597.34;;;19.36;52.20
45285;BME280;31026;43.780;25.948;2024-02-23T09:06:00;100602.72;;;19.26;52.38
45285;BME280;31026;43.780;25.948;2024-02-23T09:08:29;100607.63;;;19.21;52.59
45285;BME280;31026;43.780;25.948;2024-02-23T09:10:57;100614.72;;;19.22;52.97
45285;BME280;31026;43.780;25.948;2024-02-23T09:13:28;100612.00;;;19.61;51.95
45285;BME280;31026;43.780;25.948;2024-02-23T09:15:57;100612.66;;;20.02;51.44
45285;BME280;31026;43.780;25.948;2024-02-23T09:18:25;100618.94;;;19.64;52.17
45285;BME280;31026;43.780;25.948;2024-02-23T09:20:54;100611.28;;;19.50;52.51
45285;BME280;31026;43.780;25.948;2024-02-23T09:23:22;100605.97;;;19.40;52.81
45285;BME280;31026;43.780;25.948;2024-02-23T09:25:50;100619.38;;;19.30;53.01
45285;BME280;31026;43.780;25.948;2024-02-23T09:28:19;100619.78;;;19.25;53.40
45285;BME280;31026;43.780;25.948;2024-02-23T09:30:50;100597.06;;;19.20;53.52
45285;BME280;31026;43.780;25.948;2024-02-23T09:33:18;100624.56;;;19.41;53.34
45285;BME280;31026;43.780;25.948;2024-02-23T09:35:46;100611.28;;;19.89;52.39
45285;BME280;31026;43.780;25.948;2024-02-23T09:38:15;100615.13;;;19.76;52.61
45285;BME280;31026;43.780;25.948;2024-02-23T09:40:43;100610.06;;;19.54;53.28
45285;BME280;31026;43.780;25.948;2024-02-23T09:43:11;100615.41;;;19.44;53.69
45285;BME280;31026;43.780;25.948;2024-02-23T09:45:40;100608.09;;;19.36;54.01
45285;BME280;31026;43.780;25.948;2024-02-23T09:48:11;100605.66;;;19.33;54.07
45285;BME280;31026;43.780;25.948;2024-02-23T09:50:41;100605.66;;;19.33;54.00
45285;BME280;31026;43.780;25.948;2024-02-23T09:53:10;100608.91;;;19.27;54.24
45285;BME280;31026;43.780;25.948;2024-02-23T09:55:39;100589.19;;;19.38;54.31
45285;BME280;31026;43.780;25.948;2024-02-23T09:58:08;100607.63;;;19.80;53.55
45285;BME280;31026;43.780;25.948;2024-02-23T10:00:36;100603.22;;;19.69;53.34
45285;BME280;31026;43.780;25.948;2024-02-23T10:03:06;100593.66;;;19.57;53.99
45285;BME280;31026;43.780;25.948;2024-02-23T10:05:37;100579.88;;;19.32;53.90
45285;BME280;31026;43.780;25.948;2024-02-23T10:08:06;100606.25;;;19.27;53.86
45285;BME280;31026;43.780;25.948;2024-02-23T10:10:34;100597.63;;;19.33;54.14
45285;BME280;31026;43.780;25.948;2024-02-23T10:13:03;100594.25;;;19.31;54.17
45285;BME280;31026;43.780;25.948;2024-02-23T10:15:33;100587.19;;;19.30;54.33
45285;BME280;31026;43.780;25.948;2024-02-23T10:18:01;100570.09;;;19.41;54.47
45285;BME280;31026;43.780;25.948;2024-02-23T10:20:30;100584.03;;;19.83;53.54
45285;BME280;31026;43.780;25.948;2024-02-23T10:23:00;100581.78;;;19.79;53.56
45285;BME280;31026;43.780;25.948;2024-02-23T10:25:29;100587.31;;;19.58;54.05
45285;BME280;31026;43.780;25.948;2024-02-23T10:27:57;100567.41;;;19.41;54.62
45285;BME280;31026;43.780;25.948;2024-02-23T10:30:26;100566.72;;;19.29;54.92
45285;BME280;31026;43.780;25.948;2024-02-23T10:32:56;100575.78;;;19.28;55.13
45285;BME280;31026;43.780;25.948;2024-02-23T10:35:24;100561.50;;;19.27;55.05
45285;BME280;31026;43.780;25.948;2024-02-23T10:37:53;100557.16;;;19.26;55.10
45285;BME280;31026;43.780;25.948;2024-02-23T10:40:25;100555.66;;;19.61;54.46
45285;BME280;31026;43.780;25.948;2024-02-23T10:42:56;100565.09;;;19.85;53.82
45285;BME280;31026;43.780;25.948;2024-02-23T10:45:25;100562.31;;;19.57;54.55
45285;BME280;31026;43.780;25.948;2024-02-23T10:47:53;100556.69;;;19.51;54.77
45285;BME280;31026;43.780;25.948;2024-02-23T10:50:23;100556.69;;;19.51;54.86
45285;BME280;31026;43.780;25.948;2024-02-23T10:52:52;100555.03;;;19.40;54.87
45285;BME280;31026;43.780;25.948;2024-02-23T10:55:21;100553.31;;;19.39;55.08
45285;BME280;31026;43.780;25.948;2024-02-23T10:57:53;100554.44;;;19.36;55.10
45285;BME280;31026;43.780;25.948;2024-02-23T11:00:23;100560.78;;;19.35;55.18
45285;BME280;31026;43.780;25.948;2024-02-23T11:02:52;100552.41;;;19.77;54.41
45285;BME280;31026;43.780;25.948;2024-02-23T11:05:22;100546.50;;;19.64;54.58
45285;BME280;31026;43.780;25.948;2024-02-23T11:07:51;100550.91;;;19.45;55.22
45285;BME280;31026;43.780;25.948;2024-02-23T11:10:23;100557.41;;;19.43;55.12
45285;BME280;31026;43.780;25.948;2024-02-23T11:13:07;100552.47;;;19.38;55.15
45285;BME280;31026;43.780;25.948;2024-02-23T11:15:35;100544.84;;;19.34;55.36
45285;BME280;31026;43.780;25.948;2024-02-23T11:18:21;100543.75;;;19.26;55.49
45285;BME280;31026;43.780;25.948;2024-02-23T11:20:53;100553.06;;;19.22;55.82
45285;BME280;31026;43.780;25.948;2024-02-23T11:23:22;100543.41;;;19.59;55.08
45285;BME280;31026;43.780;25.948;2024-02-23T11:26:04;100532.91;;;19.65;54.59
45285;BME280;31026;43.780;25.948;2024-02-23T11:28:36;100536.19;;;19.50;55.16
45285;BME280;31026;43.780;25.948;2024-02-23T11:31:13;100524.81;;;19.38;55.55
45285;BME280;31026;43.780;25.948;2024-02-23T11:33:47;100531.59;;;19.32;55.48
45285;BME280;31026;43.780;25.948;2024-02-23T11:36:22;100509.03;;;19.25;55.82
45285;BME280;31026;43.780;25.948;2024-02-23T11:38:52;100539.34;;;19.25;55.68
45285;BME280;31026;43.780;25.948;2024-02-23T11:41:21;100538.25;;;19.18;55.73
45285;BME280;31026;43.780;25.948;2024-02-23T11:43:52;100513.78;;;19.41;55.41
45285;BME280;31026;43.780;25.948;2024-02-23T11:46:21;100520.22;;;19.77;54.82
45285;BME280;31026;43.780;25.948;2024-02-23T11:48:49;100527.31;;;19.49;55.27
45285;BME280;31026;43.780;25.948;2024-02-23T11:51:19;100514.63;;;19.41;55.52
45285;BME280;31026;43.780;25.948;2024-02-23T11:53:48;100505.19;;;19.27;55.65
45285;BME280;31026;43.780;25.948;2024-02-23T11:56:16;100498.59;;;19.22;55.59
45285;BME280;31026;43.780;25.948;2024-02-23T11:58:46;100503.38;;;19.28;55.34
45285;BME280;31026;43.780;25.948;2024-02-23T12:01:18;100502.13;;;19.22;55.50
45285;BME280;31026;43.780;25.948;2024-02-23T12:03:47;100517.06;;;19.25;55.74
45285;BME280;31026;43.780;25.948;2024-02-23T12:06:16;100490.88;;;19.66;54.67
45285;BME280;31026;43.780;25.948;2024-02-23T12:08:45;100495.81;;;19.61;54.94
45285;BME280;31026;43.780;25.948;2024-02-23T12:11:14;100481.47;;;19.42;55.27
45285;BME280;31026;43.780;25.948;2024-02-23T12:13:43;100491.50;;;19.40;55.35
45285;BME280;31026;43.780;25.948;2024-02-23T12:16:12;100502.38;;;19.29;55.87
45285;BME280;31026;43.780;25.948;2024-02-23T12:18:43;100478.72;;;19.15;56.19
45285;BME280;31026;43.780;25.948;2024-02-23T12:21:11;100488.88;;;19.11;56.33
45285;BME280;31026;43.780;25.948;2024-02-23T12:23:40;100483.63;;;19.10;56.35
45285;BME280;31026;43.780;25.948;2024-02-23T12:26:08;100496.19;;;19.19;56.02
45285;BME280;31026;43.780;25.948;2024-02-23T12:28:38;100492.09;;;19.34;56.24
45285;BME280;31026;43.780;25.948;2024-02-23T12:31:06;100488.00;;;19.77;55.28
45285;BME280;31026;43.780;25.948;2024-02-23T12:33:35;100496.41;;;19.55;55.60
45285;BME280;31026;43.780;25.948;2024-02-23T12:36:08;100491.78;;;19.37;55.95
45285;BME280;31026;43.780;25.948;2024-02-23T12:38:36;100498.41;;;19.33;56.00
45285;BME280;31026;43.780;25.948;2024-02-23T12:41:05;100483.94;;;19.16;56.52
45285;BME280;31026;43.780;25.948;2024-02-23T12:43:33;100491.69;;;19.10;56.83
45285;BME280;31026;43.780;25.948;2024-02-23T12:46:01;100485.75;;;19.16;56.65
45285;BME280;31026;43.780;25.948;2024-02-23T12:48:30;100497.13;;;19.37;56.19
45285;BME280;31026;43.780;25.948;2024-02-23T12:50:58;100481.41;;;19.99;54.53